sensor_id;sensor_type;location;lat;lon;timestamp;temperature;humidity
82351;SHT30;71951;39.366;22.950;2023-11-21T08:07:26;14;57
82351;SHT30;71951;39.366;22.950;2023-11-21T08:10:52;14;59
82351;SHT30;71951;39.366;22.950;2023-11-21T08:14:19;14;58
82351;SHT30;71951;39.366;22.950;2023-11-21T08:17:46;15;56
82351;SHT30;71951;39.366;22.950;2023-11-21T08:21:13;15;55
82351;SHT30;71951;39.366;22.950;2023-11-21T08:24:40;16;54
82351;SHT30;71951;39.366;22.950;2023-11-21T08:28:06;16;53
82351;SHT30;71951;39.366;22.950;2023-11-21T08:31:33;16;52
82351;SHT30;71951;39.366;22.950;2023-11-21T08:35:00;16;51
82351;SHT30;71951;39.366;22.950;2023-11-21T08:38:26;17;50
82351;SHT30;71951;39.366;22.950;2023-11-21T08:41:53;17;50
82351;SHT30;71951;39.366;22.950;2023-11-21T08:45:20;17;49
82351;SHT30;71951;39.366;22.950;2023-11-21T08:48:47;17;49
82351;SHT30;71951;39.366;22.950;2023-11-21T08:52:14;17;49
82351;SHT30;71951;39.366;22.950;2023-11-21T08:55:40;17;48
82351;SHT30;71951;39.366;22.950;2023-11-21T08:59:07;17;48
82351;SHT30;71951;39.366;22.950;2023-11-21T09:02:33;17;48
82351;SHT30;71951;39.366;22.950;2023-11-21T09:06:00;18;48
82351;SHT30;71951;39.366;22.950;2023-11-21T09:09:27;18;46
82351;SHT30;71951;39.366;22.950;2023-11-21T09:12:54;18;46
82351;SHT30;71951;39.366;22.950;2023-11-21T09:16:20;18;45
82351;SHT30;71951;39.366;22.950;2023-11-21T09:19:47;18;44
82351;SHT30;71951;39.366;22.950;2023-11-21T09:23:13;18;44
82351;SHT30;71951;39.366;22.950;2023-11-21T09:26:40;18;44
82351;SHT30;71951;39.366;22.950;2023-11-21T09:30:07;18;43
82351;SHT30;71951;39.366;22.950;2023-11-21T09:33:34;18;42
82351;SHT30;71951;39.366;22.950;2023-11-21T09:37:01;18;42
82351;SHT30;71951;39.366;22.950;2023-11-21T09:40:28;19;42
82351;SHT30;71951;39.366;22.950;2023-11-21T09:43:56;19;40
82351;SHT30;71951;39.366;22.950;2023-11-21T09:47:23;19;39
82351;SHT30;71951;39.366;22.950;2023-11-21T09:50:50;19;39
82351;SHT30;71951;39.366;22.950;2023-11-21T09:54:17;19;40
82351;SHT30;71951;39.366;22.950;2023-11-21T09:57:43;19;39
82351;SHT30;71951;39.366;22.950;2023-11-21T10:01:11;19;40
82351;SHT30;71951;39.366;22.950;2023-11-21T10:04:39;19;40
82351;SHT30;71951;39.366;22.950;2023-11-21T10:08:08;19;40
82351;SHT30;71951;39.366;22.950;2023-11-21T10:11:35;19;38
82351;SHT30;71951;39.366;22.950;2023-11-21T10:15:03;19;37
82351;SHT30;71951;39.366;22.950;2023-11-21T10:18:30;20;36
82351;SHT30;71951;39.366;22.950;2023-11-21T10:21:57;20;35
82351;SHT30;71951;39.366;22.950;2023-11-21T10:25:23;20;35
82351;SHT30;71951;39.366;22.950;2023-11-21T10:28:58;20;36
82351;SHT30;71951;39.366;22.950;2023-11-21T10:32:28;20;37
82351;SHT30;71951;39.366;22.950;2023-11-21T10:35:55;20;38
82351;SHT30;71951;39.366;22.950;2023-11-21T10:39:21;21;38
82351;SHT30;71951;39.366;22.950;2023-11-21T10:42:48;21;38
82351;SHT30;71951;39.366;22.950;2023-11-21T10:46:15;21;37
82351;SHT30;71951;39.366;22.950;2023-11-21T10:49:41;21;38
82351;SHT30;71951;39.366;22.950;2023-11-21T10:53:08;21;38
82351;SHT30;71951;39.366;22.950;2023-11-21T10:56:34;21;39
82351;SHT30;71951;39.366;22.950;2023-11-21T11:00:04;20;39
82351;SHT30;71951;39.366;22.950;2023-11-21T11:03:31;20;39
82351;SHT30;71951;39.366;22.950;2023-11-21T11:07:02;20;40
82351;SHT30;71951;39.366;22.950;2023-11-21T11:10:29;20;40
82351;SHT30;71951;39.366;22.950;2023-11-21T11:13:56;20;40
82351;SHT30;71951;39.366;22.950;2023-11-21T11:17:25;20;41
82351;SHT30;71951;39.366;22.950;2023-11-21T11:20:53;20;41
82351;SHT30;71951;39.366;22.950;2023-11-21T11:24:33;20;42
82351;SHT30;71951;39.366;22.950;2023-11-21T11:28:06;20;42
82351;SHT30;71951;39.366;22.950;2023-11-21T11:31:40;20;42
82351;SHT30;71951;39.366;22.950;2023-11-21T11:35:19;19;42
82351;SHT30;71951;39.366;22.950;2023-11-21T11:38:48;19;42
82351;SHT30;71951;39.366;22.950;2023-11-21T11:42:16;19;43
82351;SHT30;71951;39.366;22.950;2023-11-21T11:45:43;19;43
82351;SHT30;71951;39.366;22.950;2023-11-21T11:49:10;19;43
82351;SHT30;71951;39.366;22.950;2023-11-21T11:52:38;19;43
82351;SHT30;71951;39.366;22.950;2023-11-21T11:56:24;19;43
82351;SHT30;71951;39.366;22.950;2023-11-21T12:00:08;19;42
82351;SHT30;71951;39.366;22.950;2023-11-21T12:03:35;19;42
82351;SHT30;71951;39.366;22.950;2023-11-21T12:07:02;19;42
82351;SHT30;71951;39.366;22.950;2023-11-21T12:10:29;19;42
82351;SHT30;71951;39.366;22.950;2023-11-21T12:13:56;19;43
82351;SHT30;71951;39.366;22.950;2023-11-21T12:17:23;19;43
82351;SHT30;71951;39.366;22.950;2023-11-21T12:20:50;19;43
82351;SHT30;71951;39.366;22.950;2023-11-21T12:24:17;19;43
82351;SHT30;71951;39.366;22.950;2023-11-21T12:27:43;19;44
82351;SHT30;71951;39.366;22.950;2023-11-21T12:31:10;19;44
82351;SHT30;71951;39.366;22.950;2023-11-21T12:34:36;19;44
82351;SHT30;71951;39.366;22.950;2023-11-21T12:38:04;19;44
82351;SHT30;71951;39.366;22.950;2023-11-21T12:41:30;19;44
82351;SHT30;71951;39.366;22.950;2023-11-21T12:45:20;19;44
82351;SHT30;71951;39.366;22.950;2023-11-21T12:48:47;19;45
82351;SHT30;71951;39.366;22.950;2023-11-21T12:52:14;19;45
82351;SHT30;71951;39.366;22.950;2023-11-21T12:55:40;19;45
82351;SHT30;71951;39.366;22.950;2023-11-21T12:59:07;19;46
82351;SHT30;71951;39.366;22.950;2023-11-21T13:02:33;19;46
82351;SHT30;71951;39.366;22.950;2023-11-21T13:06:03;19;46
82351;SHT30;71951;39.366;22.950;2023-11-21T13:09:30;19;47
82351;SHT30;71951;39.366;22.950;2023-11-21T13:12:57;19;47
82351;SHT30;71951;39.366;22.950;2023-11-21T13:16:23;19;47
82351;SHT30;71951;39.366;22.950;2023-11-21T13:19:50;19;48
82351;SHT30;71951;39.366;22.950;2023-11-21T13:23:17;19;48
82351;SHT30;71951;39.366;22.950;2023-11-21T13:26:43;19;48
82351;SHT30;71951;39.366;22.950;2023-11-21T13:30:25;19;48
82351;SHT30;71951;39.366;22.950;2023-11-21T13:33:51;19;48
82351;SHT30;71951;39.366;22.950;2023-11-21T13:37:18;19;48
82351;SHT30;71951;39.366;22.950;2023-11-21T13:40:47;19;49
82351;SHT30;71951;39.366;22.950;2023-11-21T13:44:14;19;49
82351;SHT30;71951;39.366;22.950;2023-11-21T13:47:40;19;49
82351;SHT30;71951;39.366;22.950;2023-11-21T13:51:07;18;49
82351;SHT30;71951;39.366;22.950;2023-11-21T13:54:33;18;49
82351;SHT30;71951;39.366;22.950;2023-11-21T13:58:00;18;49
82351;SHT30;71951;39.366;22.950;2023-11-21T14:01:27;18;49
82351;SHT30;71951;39.366;22.950;2023-11-21T14:04:53;18;49
82351;SHT30;71951;39.366;22.950;2023-11-21T14:08:20;18;49
82351;SHT30;71951;39.366;22.950;2023-11-21T14:11:48;18;48
82351;SHT30;71951;39.366;22.950;2023-11-21T14:15:15;18;48
82351;SHT30;71951;39.366;22.950;2023-11-21T14:18:41;18;49
82351;SHT30;71951;39.366;22.950;2023-11-21T14:22:08;18;49
82351;SHT30;71951;39.366;22.950;2023-11-21T14:25:36;18;49
82351;SHT30;71951;39.366;22.950;2023-11-21T14:29:02;18;49
82351;SHT30;71951;39.366;22.950;2023-11-21T14:32:29;18;49
82351;SHT30;71951;39.366;22.950;2023-11-21T14:35:56;18;49
82351;SHT30;71951;39.366;22.950;2023-11-21T14:39:23;18;49
82351;SHT30;71951;39.366;22.950;2023-11-21T14:42:50;18;49
82351;SHT30;71951;39.366;22.950;2023-11-21T14:46:16;18;48
82351;SHT30;71951;39.366;22.950;2023-11-21T14:49:43;18;48
82351;SHT30;71951;39.366;22.950;2023-11-21T14:53:11;18;48
82351;SHT30;71951;39.366;22.950;2023-11-21T14:56:38;18;48
82351;SHT30;71951;39.366;22.950;2023-11-21T15:00:05;18;47
82351;SHT30;71951;39.366;22.950;2023-11-21T15:03:32;18;47
82351;SHT30;71951;39.366;22.950;2023-11-21T15:06:59;18;48
82351;SHT30;71951;39.366;22.950;2023-11-21T15:10:25;18;48
82351;SHT30;71951;39.366;22.950;2023-11-21T15:13:52;18;48
82351;SHT30;71951;39.366;22.950;2023-11-21T15:17:19;18;49
82351;SHT30;71951;39.366;22.950;2023-11-21T15:20:45;18;49
82351;SHT30;71951;39.366;22.950;2023-11-21T15:24:12;18;49
82351;SHT30;71951;39.366;22.950;2023-11-21T15:27:39;18;49
82351;SHT30;71951;39.366;22.950;2023-11-21T15:31:06;18;50
82351;SHT30;71951;39.366;22.950;2023-11-21T15:34:32;18;50
82351;SHT30;71951;39.366;22.950;2023-11-21T15:37:59;18;50
82351;SHT30;71951;39.366;22.950;2023-11-21T15:41:25;18;51
82351;SHT30;71951;39.366;22.950;2023-11-21T15:44:52;18;51
82351;SHT30;71951;39.366;22.950;2023-11-21T15:48:18;18;51
82351;SHT30;71951;39.366;22.950;2023-11-21T15:51:45;18;52
82351;SHT30;71951;39.366;22.950;2023-11-21T15:55:12;18;52
82351;SHT30;71951;39.366;22.950;2023-11-21T15:58:39;18;52
82351;SHT30;71951;39.366;22.950;2023-11-21T16:02:05;18;52
